Prague, NE (68050)

3:40 AM CST on December 29, 2014 (GMT -0600)
Corner of Highway Ave & Railroad Ave | Change Station
CLOSE
Current Station
Personal Weather Station
Location: Prague, NE
Elevation: 1348 ft
Nearby Weather Stations
Active Advisory: Wind Chill Advisory

Elev 1348 ft 41.31 °N, 96.81 °W | Updated 3 seconds ago

Mostly Cloudy
Mostly Cloudy
19.2 °F
Feels Like 19 °F
N
2.8
Wind Variable Wind from North
Gusts 6.9 mph

Today
High -- | Low -- °F
--% Chance of Precip.
Yesterday
High -- | Low -- °F
Precip. -- in
7:52 AM 5:06 PM
First Quarter, 57% visible
Pressure 30.24 in
Visibility 10.0 miles
Clouds Mostly Cloudy 7500 ft
Mostly Cloudy 8000 ft
Overcast 11000 ft
Windchill 19 °F
Dew Point 17 °F
Humidity 92%
Rainfall 0.00 in
Snow Depth Not available.
UV 0 out of 12
Pollen .10 out of 12
Air Quality Not available.
Flu Activity Not available.
METAR KAHQ 290915Z AUTO 02008KT 10SM BKN075 BKN080 OVC110 M06/M08 A3024 RMK AO2 T10561080

More Conditions Fewer Conditions

Pressure 30.24 in
Visibility 10.0 miles
Clouds Mostly Cloudy 7500 ft
Mostly Cloudy 8000 ft
Overcast 11000 ft
Windchill 19 °F
Dew Point 17 °F
Humidity 92%
Rainfall 0.00 in
Snow Depth Not available.
UV 0 out of 12
Pollen .10 out of 12
Air Quality Not available.
Flu Activity Not available.
METAR KAHQ 290915Z AUTO 02008KT 10SM BKN075 BKN080 OVC110 M06/M08 A3024 RMK AO2 T10561080

More Conditions Fewer Conditions

10-Day Weather Forecast

Almanac

Astronomy

Dec. 29, 2014 Rise Set
Actual Time
Civil Twilight
Nautical Twilight
Astronomical Twilight
Moon
Length of Visible Light
Length of Day
Tomorrow will be .
, % of the Moon is Illuminated

Today's Extremes

State Highs State Lows

Community

WunderPhotos

Upload Photos

1,781,562 photos uploaded!

WunderBlogs® & News

Nearby

Air Quality

  Air Quality AQ Index Pollutant
Not available.

Snow Depth

Station Depth Elevation

Earthquake Activity

City Distance Mag. Time & Date
Minimum magnitude displayed is 2.5.

Coastal Water Temperatures

Place Temperature

Nearby Weather Stations